createdAt,value
2018-11-26T00:01:24.045Z,22.48
2018-11-26T00:03:27.827Z,23.27
2018-11-26T00:05:31.653Z,23.92
2018-11-26T00:07:35.424Z,22.07
2018-11-26T00:09:39.221Z,25.23
2018-11-26T00:11:43.608Z,24.37
2018-11-26T00:13:47.381Z,23.50
2018-11-26T00:15:51.195Z,23.47
2018-11-26T00:17:54.978Z,24.23
2018-11-26T00:19:58.762Z,23.83
2018-11-26T00:22:02.568Z,23.65
2018-11-26T00:24:06.564Z,24.72
2018-11-26T00:26:10.378Z,22.85
2018-11-26T00:28:14.805Z,23.65
2018-11-26T00:30:18.606Z,23.80
2018-11-26T00:32:22.408Z,22.82
2018-11-26T00:34:26.233Z,23.27
2018-11-26T00:36:30.040Z,24.02
2018-11-26T00:38:33.816Z,22.77
2018-11-26T00:40:37.590Z,22.82
2018-11-26T00:42:41.418Z,23.83
2018-11-26T00:44:45.179Z,24.32
2018-11-26T00:46:48.968Z,23.52
2018-11-26T00:48:52.736Z,24.30
2018-11-26T00:50:56.509Z,23.92
2018-11-26T00:53:00.311Z,24.30
2018-11-26T00:55:04.486Z,25.25
2018-11-26T00:57:08.307Z,24.43
2018-11-26T00:59:12.072Z,25.25
2018-11-26T01:01:16.220Z,23.87
2018-11-26T01:03:20.019Z,24.05
2018-11-26T01:05:34.732Z,26.00
2018-11-26T01:07:38.529Z,26.12
2018-11-26T01:09:42.309Z,25.55
2018-11-26T01:11:46.080Z,26.30
2018-11-26T01:13:49.831Z,25.55
2018-11-26T01:15:53.620Z,27.65
2018-11-26T01:17:57.414Z,26.15
2018-11-26T01:20:01.173Z,26.33
2018-11-26T01:22:05.017Z,26.95
2018-11-26T01:24:08.785Z,27.87
2018-11-26T01:26:12.637Z,25.50
2018-11-26T01:28:16.439Z,25.92
2018-11-26T01:30:20.205Z,26.77
2018-11-26T01:32:23.972Z,26.17
2018-11-26T01:34:27.761Z,27.67
2018-11-26T01:36:31.535Z,28.87
2018-11-26T01:38:35.323Z,27.75
2018-11-26T01:40:44.565Z,27.32
2018-11-26T01:42:48.610Z,28.67
2018-11-26T01:44:52.613Z,27.65
2018-11-26T01:46:59.420Z,26.90
2018-11-26T01:49:03.259Z,27.13
2018-11-26T01:51:07.292Z,26.90
2018-11-26T01:53:11.094Z,27.02
2018-11-26T01:55:15.356Z,28.55
2018-11-26T01:57:19.128Z,27.93
2018-11-26T01:59:22.911Z,28.50
2018-11-26T02:01:26.711Z,28.92
2018-11-26T02:03:30.573Z,30.02
2018-11-26T02:05:34.362Z,29.95
2018-11-26T02:07:38.183Z,29.92
2018-11-26T02:09:41.971Z,28.20
2018-11-26T02:11:45.743Z,29.67
2018-11-26T02:13:49.541Z,30.00
2018-11-26T02:15:53.382Z,30.17
2018-11-26T02:17:57.179Z,29.92
2018-11-26T02:20:00.928Z,29.63
2018-11-26T02:22:04.762Z,28.30
2018-11-26T02:24:08.551Z,30.08
2018-11-26T02:26:12.432Z,29.45
2018-11-26T02:28:16.231Z,29.37
2018-11-26T02:30:20.024Z,28.98
2018-11-26T02:32:23.804Z,28.77
2018-11-26T02:34:27.605Z,29.10
2018-11-26T02:36:31.370Z,29.95
2018-11-26T02:38:35.192Z,29.82
2018-11-26T02:40:38.949Z,29.20
2018-11-26T02:42:42.737Z,29.37
2018-11-26T02:44:46.531Z,30.48
2018-11-26T02:46:50.305Z,29.67
2018-11-26T02:48:54.107Z,28.15
2018-11-26T02:50:57.893Z,29.45
2018-11-26T02:53:01.696Z,27.87
2018-11-26T02:55:05.850Z,28.90
2018-11-26T02:57:09.645Z,29.50
2018-11-26T02:59:13.437Z,28.12
2018-11-26T03:01:17.256Z,29.63
2018-11-26T03:03:21.041Z,28.00
2018-11-26T03:05:29.410Z,29.42
2018-11-26T03:07:33.256Z,29.72
2018-11-26T03:09:37.061Z,27.85
2018-11-26T03:11:40.832Z,29.05
2018-11-26T03:13:44.608Z,28.57
2018-11-26T03:15:48.372Z,27.73
2018-11-26T03:17:52.181Z,28.47
2018-11-26T03:19:55.978Z,27.60
2018-11-26T03:21:59.765Z,27.55
2018-11-26T03:24:03.934Z,26.62
2018-11-26T03:26:07.754Z,28.20
2018-11-26T03:28:11.934Z,27.17
2018-11-26T03:30:19.200Z,26.27
2018-11-26T03:32:22.993Z,26.70
2018-11-26T03:34:26.762Z,25.72
2018-11-26T03:36:30.512Z,25.20
2018-11-26T03:38:48.804Z,25.02
2018-11-26T03:40:52.934Z,24.10
2018-11-26T03:42:56.712Z,25.12
2018-11-26T03:45:00.505Z,23.92
2018-11-26T03:47:10.756Z,23.05
2018-11-26T03:49:14.566Z,23.60
2018-11-26T03:51:18.336Z,23.60
2018-11-26T03:53:22.105Z,24.90
2018-11-26T03:55:25.886Z,21.93
2018-11-26T03:57:29.665Z,22.42
2018-11-26T03:59:33.452Z,21.60
2018-11-26T04:01:37.248Z,21.35
2018-11-26T04:03:41.017Z,19.70
2018-11-26T04:05:44.778Z,19.20
2018-11-26T04:07:48.540Z,18.87
2018-11-26T04:09:52.344Z,19.25
2018-11-26T04:11:56.129Z,17.67
2018-11-26T04:13:59.931Z,17.55
2018-11-26T04:16:03.764Z,17.02
2018-11-26T04:18:07.534Z,16.93
2018-11-26T04:20:11.374Z,16.52
2018-11-26T04:22:15.178Z,16.60
2018-11-26T04:24:19.007Z,16.40
2018-11-26T04:26:22.790Z,17.62
2018-11-26T04:28:26.571Z,17.17
2018-11-26T04:30:30.370Z,16.75
2018-11-26T04:32:34.124Z,16.80
2018-11-26T04:34:37.902Z,15.98
2018-11-26T04:36:41.681Z,15.85
2018-11-26T04:38:45.483Z,17.05
2018-11-26T04:40:49.264Z,16.12
2018-11-26T04:42:53.018Z,15.68
2018-11-26T04:44:56.803Z,14.10
2018-11-26T04:47:00.594Z,16.15
2018-11-26T04:49:04.621Z,15.53
2018-11-26T04:51:08.385Z,16.32
2018-11-26T04:53:12.134Z,15.93
2018-11-26T04:55:15.928Z,17.17
2018-11-26T04:57:19.730Z,17.85
2018-11-26T04:59:23.535Z,17.37
2018-11-26T05:01:27.297Z,17.27
2018-11-26T05:03:31.096Z,15.80
2018-11-26T05:05:34.886Z,16.30
2018-11-26T05:07:41.555Z,16.87
2018-11-26T05:09:45.314Z,16.97
2018-11-26T05:11:49.070Z,16.12
2018-11-26T05:13:52.864Z,17.02
2018-11-26T05:15:56.626Z,16.70
2018-11-26T05:18:00.424Z,16.75
2018-11-26T05:20:05.511Z,17.75
2018-11-26T05:22:09.339Z,16.82
2018-11-26T05:24:13.168Z,16.90
2018-11-26T05:26:16.974Z,17.25
2018-11-26T05:28:20.788Z,17.35
2018-11-26T05:30:24.614Z,15.63
2018-11-26T05:32:28.429Z,17.15
2018-11-26T05:34:32.269Z,16.77
2018-11-26T05:36:36.070Z,17.05
2018-11-26T05:38:39.894Z,16.97
2018-11-26T05:40:44.393Z,16.48
2018-11-26T05:42:48.228Z,16.77
2018-11-26T05:44:52.035Z,16.65
2018-11-26T05:46:56.688Z,17.20
2018-11-26T05:49:00.870Z,16.10
2018-11-26T05:51:05.314Z,17.45
2018-11-26T05:53:09.224Z,17.42
2018-11-26T05:55:15.528Z,18.35
2018-11-26T05:57:19.735Z,17.35
2018-11-26T05:59:23.827Z,17.57
2018-11-26T06:01:27.859Z,17.23
2018-11-26T06:03:32.593Z,16.42
2018-11-26T06:05:36.475Z,16.32
2018-11-26T06:07:40.300Z,16.73
2018-11-26T06:09:44.300Z,16.50
2018-11-26T06:11:49.633Z,15.50
2018-11-26T06:13:53.460Z,17.70
2018-11-26T06:16:00.766Z,15.78
2018-11-26T06:18:04.580Z,15.98
2018-11-26T06:20:11.261Z,16.35
2018-11-26T06:22:15.909Z,17.12
2018-11-26T06:24:20.640Z,15.98
2018-11-26T06:26:25.218Z,16.20
2018-11-26T06:28:29.438Z,16.23
2018-11-26T06:30:33.975Z,16.32
2018-11-26T06:32:37.868Z,15.68
2018-11-26T06:34:42.545Z,16.12
2018-11-26T06:36:45.760Z,15.83
2018-11-26T06:38:49.972Z,16.05
2018-11-26T06:40:53.811Z,16.40
2018-11-26T06:42:57.654Z,14.65
2018-11-26T06:45:01.527Z,15.78
2018-11-26T06:47:06.251Z,15.70
2018-11-26T06:49:46.215Z,15.08
2018-11-26T06:51:56.583Z,15.43
2018-11-26T06:54:02.029Z,15.60
2018-11-26T06:56:06.683Z,16.20
2018-11-26T06:58:17.405Z,15.03
2018-11-26T07:00:22.046Z,16.02
2018-11-26T07:02:33.102Z,16.10
2018-11-26T07:04:37.090Z,17.27
2018-11-26T07:06:40.962Z,16.23
2018-11-26T07:08:45.756Z,16.80
2018-11-26T07:10:49.675Z,17.00
2018-11-26T07:12:53.586Z,17.05
2018-11-26T07:14:57.392Z,18.27
2018-11-26T07:17:01.297Z,18.30
2018-11-26T07:19:11.024Z,18.30
2018-11-26T07:21:15.021Z,18.35
2018-11-26T07:23:18.969Z,17.80
2018-11-26T07:25:23.001Z,17.60
2018-11-26T07:27:33.756Z,19.15
2018-11-26T07:29:58.965Z,19.92
2018-11-26T07:32:04.120Z,18.57
2018-11-26T07:34:08.807Z,19.67
2018-11-26T07:36:13.654Z,19.57
2018-11-26T07:38:19.041Z,18.48
2018-11-26T07:40:23.879Z,18.45
2018-11-26T07:42:29.363Z,19.23
2018-11-26T07:44:33.444Z,19.80
2018-11-26T07:46:38.426Z,18.48
2018-11-26T07:48:47.500Z,18.35
2018-11-26T07:50:58.222Z,17.17
2018-11-26T07:53:03.036Z,17.87
2018-11-26T07:55:09.550Z,17.17
2018-11-26T07:59:42.049Z,17.60
2018-11-26T08:01:47.879Z,18.48
2018-11-26T08:03:53.030Z,16.85
2018-11-26T08:05:57.239Z,16.20
2018-11-26T08:08:01.070Z,17.05
2018-11-26T08:10:07.025Z,16.73
2018-11-26T08:12:11.450Z,15.60
2018-11-26T08:14:15.817Z,15.23
2018-11-26T08:16:20.700Z,15.58
2018-11-26T08:18:26.189Z,15.15
2018-11-26T08:20:31.142Z,14.43
2018-11-26T08:22:40.148Z,15.15
2018-11-26T08:25:01.968Z,16.00
2018-11-26T08:27:07.303Z,15.30
2018-11-26T08:29:12.568Z,14.68
2018-11-26T08:31:17.292Z,14.80
2018-11-26T08:36:30.108Z,14.55
2018-11-26T08:38:39.778Z,15.88
2018-11-26T08:40:49.372Z,15.10
2018-11-26T08:43:02.990Z,16.05
2018-11-26T08:45:13.995Z,15.93
2018-11-26T08:47:19.084Z,16.10
2018-11-26T08:49:26.238Z,16.87
2018-11-26T08:51:32.469Z,15.53
2018-11-26T08:53:37.733Z,16.20
2018-11-26T08:55:46.459Z,16.12
2018-11-26T08:57:51.236Z,15.72
2018-11-26T08:59:56.612Z,16.32
2018-11-26T09:02:08.137Z,15.20
2018-11-26T09:04:20.618Z,14.55
2018-11-26T09:06:34.546Z,14.73
2018-11-26T09:08:56.022Z,14.93
2018-11-26T09:11:01.684Z,15.58
2018-11-26T09:13:06.061Z,14.78
2018-11-26T09:15:12.612Z,15.50
2018-11-26T09:17:18.049Z,14.23
2018-11-26T09:19:22.059Z,15.25
2018-11-26T09:21:28.427Z,15.03
2018-11-26T09:23:36.814Z,15.60
2018-11-26T09:25:42.249Z,15.78
2018-11-26T09:27:47.851Z,16.77
2018-11-26T09:32:02.650Z,15.93
2018-11-26T09:34:07.670Z,17.98
2018-11-26T09:36:17.509Z,16.87
2018-11-26T09:38:35.204Z,16.05
2018-11-26T09:40:40.240Z,17.12
2018-11-26T09:42:50.472Z,16.85
2018-11-26T09:44:58.920Z,16.82
2018-11-26T09:47:13.115Z,17.40
2018-11-26T09:49:22.785Z,16.82
2018-11-26T09:51:28.073Z,16.27
2018-11-26T09:53:36.068Z,16.80
2018-11-26T09:55:41.820Z,16.82
2018-11-26T09:57:47.602Z,17.90
2018-11-26T09:59:59.778Z,17.55
2018-11-26T10:02:05.934Z,18.50
2018-11-26T10:04:15.276Z,19.05
2018-11-26T10:06:26.960Z,18.80
2018-11-26T10:08:32.064Z,19.48
2018-11-26T10:10:38.408Z,19.65
2018-11-26T10:18:11.224Z,18.65
2018-11-26T10:20:15.385Z,19.10
2018-11-26T10:22:27.390Z,20.85
2018-11-26T10:24:31.778Z,18.25
2018-11-26T10:26:37.691Z,20.23
2018-11-26T10:28:42.540Z,19.87
2018-11-26T10:30:51.864Z,20.27
2018-11-26T10:32:57.100Z,19.70
2018-11-26T10:35:01.406Z,18.98
2018-11-26T10:37:09.672Z,19.20
2018-11-26T10:39:18.690Z,19.12
2018-11-26T10:41:31.142Z,20.15
2018-11-26T10:43:43.206Z,19.12
2018-11-26T10:51:10.678Z,19.30
2018-11-26T10:53:28.907Z,19.23
2018-11-26T10:55:40.286Z,19.35
2018-11-26T10:57:54.375Z,19.00
2018-11-26T11:00:00.398Z,19.55
2018-11-26T11:02:16.396Z,19.27
2018-11-26T11:04:43.653Z,18.85
2018-11-26T11:07:02.793Z,19.57
2018-11-26T11:09:09.181Z,18.73
2018-11-26T11:11:13.508Z,19.62
2018-11-26T11:13:19.689Z,18.73
2018-11-26T11:15:26.934Z,18.80
2018-11-26T11:17:44.902Z,17.50
2018-11-26T11:19:51.236Z,18.90
2018-11-26T11:21:57.559Z,17.37
2018-11-26T11:24:01.597Z,19.17
2018-11-26T11:26:06.004Z,18.67
2018-11-26T11:28:11.318Z,18.80
2018-11-26T11:30:17.988Z,18.35
2018-11-26T11:32:22.714Z,17.48
2018-11-26T11:34:26.681Z,19.27
2018-11-26T11:36:30.968Z,17.77
2018-11-26T11:38:38.756Z,17.32
2018-11-26T11:40:43.288Z,18.35
2018-11-26T11:42:47.941Z,16.97
2018-11-26T11:44:53.046Z,17.82
2018-11-26T11:46:58.225Z,16.45
2018-11-26T11:49:02.529Z,17.15
2018-11-26T11:51:07.181Z,17.20
2018-11-26T11:53:13.070Z,18.05
2018-11-26T11:55:18.418Z,17.02
2018-11-26T11:57:27.973Z,18.00
2018-11-26T11:59:32.568Z,18.60
2018-11-26T12:01:58.996Z,17.10
2018-11-26T12:04:03.839Z,17.52
2018-11-26T12:06:17.958Z,17.67
2018-11-26T12:08:22.227Z,18.27
2018-11-26T12:10:30.608Z,17.73
2018-11-26T12:12:40.609Z,16.95
2018-11-26T12:14:48.907Z,17.48
2018-11-26T12:17:10.945Z,17.25
2018-11-26T12:21:41.422Z,17.67
2018-11-26T12:23:56.804Z,17.62
2018-11-26T12:26:06.248Z,16.75
2018-11-26T12:28:19.422Z,18.35
2018-11-26T12:30:29.547Z,17.90
2018-11-26T12:32:46.903Z,16.82
2018-11-26T12:34:53.448Z,17.50
2018-11-26T12:37:02.020Z,17.45
2018-11-26T12:39:10.610Z,17.12
2018-11-26T12:41:19.130Z,16.82
2018-11-26T12:43:23.597Z,16.90
2018-11-26T12:45:29.241Z,16.73
2018-11-26T12:47:45.669Z,17.15
2018-11-26T12:50:05.989Z,17.12
2018-11-26T12:53:10.593Z,15.85
2018-11-26T12:55:31.720Z,16.75
2018-11-26T12:57:41.746Z,16.27
2018-11-26T13:01:16.645Z,16.27
2018-11-26T13:06:07.210Z,14.95
2018-11-26T13:08:17.040Z,14.68
2018-11-26T13:10:50.493Z,15.40
2018-11-26T13:12:54.872Z,15.23
2018-11-26T13:15:00.654Z,15.23
2018-11-26T13:17:04.658Z,15.05
2018-11-26T13:19:18.691Z,14.78
2018-11-26T13:21:25.110Z,13.85
2018-11-26T13:23:30.539Z,15.23
2018-11-26T13:25:41.976Z,14.87
2018-11-26T13:27:51.803Z,15.43
2018-11-26T13:29:56.996Z,15.00
2018-11-26T13:32:00.024Z,15.45
2018-11-26T13:34:04.059Z,14.60
2018-11-26T13:36:08.248Z,13.50
2018-11-26T13:38:14.017Z,15.08
2018-11-26T13:40:19.480Z,14.35
2018-11-26T13:42:25.439Z,14.33
2018-11-26T13:44:37.703Z,14.93
2018-11-26T13:46:55.846Z,13.98
2018-11-26T13:54:09.683Z,13.55
2018-11-26T13:56:18.544Z,14.98
2018-11-26T13:58:26.265Z,13.48
2018-11-26T14:00:31.013Z,14.60
2018-11-26T14:02:37.711Z,14.20
2018-11-26T14:04:44.433Z,14.70
2018-11-26T14:06:50.314Z,15.63
2018-11-26T14:08:56.488Z,14.47
2018-11-26T14:11:05.870Z,13.72
2018-11-26T14:13:20.078Z,14.25
2018-11-26T14:15:35.292Z,14.78
2018-11-26T14:25:08.513Z,14.23
2018-11-26T14:27:14.851Z,14.25
2018-11-26T14:29:32.029Z,13.70
2018-11-26T14:31:45.368Z,14.83
2018-11-26T14:34:03.042Z,14.20
2018-11-26T14:36:07.578Z,15.20
2018-11-26T14:38:15.998Z,15.58
2018-11-26T14:40:48.145Z,14.75
2018-11-26T14:42:52.618Z,16.27
2018-11-26T14:45:09.238Z,15.60
2018-11-26T14:47:14.091Z,14.50
2018-11-26T14:49:18.898Z,14.75
2018-11-26T14:51:25.330Z,14.98
2018-11-26T14:53:38.790Z,15.48
2018-11-26T14:55:44.858Z,14.25
2018-11-26T14:57:48.972Z,13.75
2018-11-26T14:59:53.887Z,14.60
2018-11-26T15:01:58.256Z,13.98
2018-11-26T15:04:02.014Z,14.58
2018-11-26T15:06:06.648Z,15.10
2018-11-26T15:08:13.250Z,15.32
2018-11-26T15:10:21.275Z,14.83
2018-11-26T15:12:30.030Z,14.28
2018-11-26T15:14:34.379Z,15.50
2018-11-26T15:19:08.233Z,15.50
2018-11-26T15:21:14.113Z,14.98
2018-11-26T15:23:27.204Z,15.70
2018-11-26T15:25:42.838Z,16.20
2018-11-26T15:27:48.714Z,15.32
2018-11-26T15:29:55.614Z,16.00
2018-11-26T15:32:02.554Z,16.10
2018-11-26T15:34:07.518Z,14.53
2018-11-26T15:36:11.814Z,16.00
2018-11-26T15:38:17.501Z,16.27
2018-11-26T15:40:22.561Z,16.97
2018-11-26T15:42:28.232Z,16.30
2018-11-26T15:44:32.496Z,16.97
2018-11-26T15:46:37.344Z,17.07
2018-11-26T15:48:43.809Z,15.55
2018-11-26T15:50:48.731Z,16.70
2018-11-26T15:52:52.688Z,16.48
2018-11-26T15:54:56.591Z,16.23
2018-11-26T15:57:00.458Z,16.62
2018-11-26T15:59:04.351Z,17.23
2018-11-26T16:01:08.679Z,16.95
2018-11-26T16:03:12.728Z,17.67
2018-11-26T16:05:26.608Z,18.37
2018-11-26T16:07:30.412Z,17.15
2018-11-26T16:09:34.264Z,17.20
2018-11-26T16:11:38.469Z,16.77
2018-11-26T16:13:42.264Z,18.27
2018-11-26T16:15:46.242Z,18.25
2018-11-26T16:17:50.452Z,17.57
2018-11-26T16:19:54.284Z,18.52
2018-11-26T16:21:58.085Z,17.80
2018-11-26T16:24:01.890Z,18.80
2018-11-26T16:26:06.410Z,17.73
2018-11-26T16:28:11.346Z,18.30
2018-11-26T16:30:17.128Z,18.32
2018-11-26T16:32:20.916Z,18.12
2018-11-26T16:34:24.704Z,19.75
2018-11-26T16:36:28.526Z,18.92
2018-11-26T16:38:32.295Z,18.57
2018-11-26T16:40:36.097Z,20.17
2018-11-26T16:42:39.941Z,19.98
2018-11-26T16:44:43.751Z,18.82
2018-11-26T16:46:47.524Z,20.17
2018-11-26T16:48:51.313Z,20.48
2018-11-26T16:50:55.120Z,19.60
2018-11-26T16:52:59.751Z,19.90
2018-11-26T16:55:03.669Z,19.70
2018-11-26T16:57:07.446Z,20.88
2018-11-26T16:59:11.243Z,20.60
2018-11-26T17:01:15.094Z,21.00
2018-11-26T17:03:18.914Z,19.70
2018-11-26T17:05:30.503Z,20.65
2018-11-26T17:07:34.303Z,19.23
2018-11-26T17:09:38.071Z,18.77
2018-11-26T17:11:41.886Z,20.08
2018-11-26T17:13:45.664Z,18.40
2018-11-26T17:15:49.469Z,20.70
2018-11-26T17:17:53.264Z,19.60
2018-11-26T17:19:57.092Z,20.02
2018-11-26T17:22:00.900Z,20.60
2018-11-26T17:24:05.327Z,20.60
2018-11-26T17:26:09.159Z,20.02
2018-11-26T17:28:12.993Z,21.23
2018-11-26T17:30:21.410Z,19.95
2018-11-26T17:32:25.182Z,19.92
2018-11-26T17:34:28.973Z,20.85
2018-11-26T17:36:32.810Z,19.35
2018-11-26T17:38:36.579Z,19.98
2018-11-26T17:40:40.958Z,20.88
2018-11-26T17:42:45.083Z,19.70
2018-11-26T17:44:48.873Z,20.90
2018-11-26T17:46:52.679Z,21.00
2018-11-26T17:48:56.473Z,21.05
2018-11-26T17:51:00.317Z,22.10
2018-11-26T17:53:04.477Z,22.07
2018-11-26T17:55:09.330Z,20.08
2018-11-26T17:57:13.131Z,21.17
2018-11-26T17:59:16.921Z,21.48
2018-11-26T18:01:39.986Z,20.32
2018-11-26T18:03:43.767Z,20.52
2018-11-26T18:05:47.596Z,21.12
2018-11-26T18:07:59.011Z,21.15
2018-11-26T18:10:02.788Z,22.40
2018-11-26T18:12:06.650Z,22.50
2018-11-26T18:14:10.437Z,22.22
2018-11-26T18:16:14.263Z,21.00
2018-11-26T18:18:19.162Z,20.82
2018-11-26T18:20:23.274Z,21.20
2018-11-26T18:22:27.086Z,20.65
2018-11-26T18:24:30.894Z,20.23
2018-11-26T18:26:34.800Z,20.32
2018-11-26T18:28:38.566Z,20.90
2018-11-26T18:30:50.190Z,21.05
2018-11-26T18:32:53.999Z,20.52
2018-11-26T18:34:57.748Z,21.52
2018-11-26T18:37:01.589Z,22.40
2018-11-26T18:39:08.786Z,21.68
2018-11-26T18:41:12.581Z,21.00
2018-11-26T18:43:16.708Z,20.75
2018-11-26T18:45:20.766Z,22.32
2018-11-26T18:47:24.592Z,20.23
2018-11-26T18:49:28.358Z,20.50
2018-11-26T18:51:32.154Z,21.15
2018-11-26T18:53:36.106Z,20.43
2018-11-26T18:55:40.907Z,21.02
2018-11-26T18:57:45.122Z,21.90
2018-11-26T18:59:48.868Z,21.80
2018-11-26T19:01:52.670Z,22.27
2018-11-26T19:03:56.454Z,20.88
2018-11-26T19:06:00.536Z,22.67
2018-11-26T19:08:04.342Z,21.80
2018-11-26T19:10:16.154Z,21.73
2018-11-26T19:12:19.965Z,20.15
2018-11-26T19:14:24.974Z,21.65
2018-11-26T19:16:32.387Z,21.37
2018-11-26T19:18:36.323Z,21.25
2018-11-26T19:20:40.122Z,20.97
2018-11-26T19:22:43.941Z,22.93
2018-11-26T19:24:47.722Z,21.40
2018-11-26T19:26:51.523Z,23.25
2018-11-26T19:28:55.510Z,21.90
2018-11-26T19:30:59.272Z,22.32
2018-11-26T19:33:03.067Z,22.95
2018-11-26T19:35:10.010Z,23.30
2018-11-26T19:37:13.847Z,21.20
2018-11-26T19:39:17.627Z,23.47
2018-11-26T19:41:21.431Z,23.00
2018-11-26T19:43:25.225Z,24.20
2018-11-26T19:45:29.036Z,23.95
2018-11-26T19:47:32.915Z,23.77
2018-11-26T19:49:36.690Z,23.62
2018-11-26T19:51:40.491Z,23.35
2018-11-26T19:53:44.260Z,23.18
2018-11-26T19:55:48.034Z,23.15
2018-11-26T19:57:52.475Z,24.10
2018-11-26T19:59:56.252Z,22.80
2018-11-26T20:02:00.135Z,22.80
2018-11-26T20:04:14.003Z,22.82
2018-11-26T20:06:21.370Z,23.30
2018-11-26T20:08:25.161Z,22.32
2018-11-26T20:10:28.944Z,22.95
2018-11-26T20:12:32.755Z,24.32
2018-11-26T20:14:36.540Z,22.90
2018-11-26T20:16:42.250Z,23.83
2018-11-26T20:18:46.055Z,22.70
2018-11-26T20:20:49.841Z,21.85
2018-11-26T20:22:53.830Z,23.02
2018-11-26T20:24:57.465Z,22.75
2018-11-26T20:27:01.251Z,23.50
2018-11-26T20:29:05.492Z,23.90
2018-11-26T20:31:09.969Z,23.60
2018-11-26T20:33:13.816Z,24.95
2018-11-26T20:35:17.683Z,24.07
2018-11-26T20:37:21.482Z,24.60
2018-11-26T20:39:25.284Z,24.20
2018-11-26T20:41:29.082Z,24.05
2018-11-26T20:43:32.879Z,24.45
2018-11-26T20:45:37.287Z,23.90
2018-11-26T20:47:41.103Z,25.72
2018-11-26T20:49:44.944Z,24.47
2018-11-26T20:51:48.714Z,25.30
2018-11-26T20:53:52.512Z,26.20
2018-11-26T20:55:56.325Z,25.43
2018-11-26T20:58:00.131Z,24.40
2018-11-26T21:00:04.023Z,26.25
2018-11-26T21:02:07.826Z,26.02
2018-11-26T21:04:11.615Z,25.60
2018-11-26T21:06:15.393Z,27.35
2018-11-26T21:08:19.222Z,25.82
2018-11-26T21:10:22.984Z,26.12
2018-11-26T21:12:27.094Z,27.13
2018-11-26T21:14:30.926Z,26.40
2018-11-26T21:16:34.696Z,25.72
2018-11-26T21:18:44.002Z,24.63
2018-11-26T21:20:49.215Z,25.77
2018-11-26T21:22:53.071Z,24.60
2018-11-26T21:24:56.874Z,26.00
2018-11-26T21:27:00.739Z,25.92
2018-11-26T21:29:05.192Z,25.57
2018-11-26T21:31:09.003Z,25.23
2018-11-26T21:33:13.183Z,24.12
2018-11-26T21:35:19.749Z,24.80
2018-11-26T21:37:23.516Z,27.32
2018-11-26T21:39:27.374Z,25.52
2018-11-26T21:41:37.643Z,24.77
2018-11-26T21:43:41.444Z,26.30
2018-11-26T21:45:48.061Z,23.52
2018-11-26T21:47:51.855Z,24.65
2018-11-26T21:49:55.659Z,24.72
2018-11-26T21:51:59.432Z,25.55
2018-11-26T21:54:03.269Z,25.80
2018-11-26T21:56:07.466Z,24.37
2018-11-26T21:58:11.291Z,25.08
2018-11-26T22:00:22.306Z,25.62
2018-11-26T22:02:26.105Z,25.90
2018-11-26T22:04:29.941Z,24.77
2018-11-26T22:06:33.768Z,25.45
2018-11-26T22:08:37.730Z,25.88
2018-11-26T22:10:42.720Z,25.95
2018-11-26T22:12:48.211Z,25.15
2018-11-26T22:14:52.022Z,26.10
2018-11-26T22:16:55.798Z,24.18
2018-11-26T22:18:59.580Z,26.82
2018-11-26T22:21:03.395Z,26.80
2018-11-26T22:23:07.990Z,24.57
2018-11-26T22:25:12.449Z,26.37
2018-11-26T22:27:16.211Z,26.87
2018-11-26T22:29:20.108Z,24.75
2018-11-26T22:31:23.919Z,24.20
2018-11-26T22:33:27.712Z,24.60
2018-11-26T22:35:31.518Z,26.37
2018-11-26T22:37:35.334Z,26.07
2018-11-26T22:39:39.116Z,26.50
2018-11-26T22:41:42.880Z,27.05
2018-11-26T22:43:46.630Z,25.90
2018-11-26T22:45:50.435Z,25.48
2018-11-26T22:48:06.926Z,25.20
2018-11-26T22:50:13.475Z,24.72
2018-11-26T22:52:17.234Z,26.85
2018-11-26T22:54:21.033Z,26.25
2018-11-26T22:56:24.832Z,25.65
2018-11-26T22:58:28.637Z,26.23
2018-11-26T23:00:42.203Z,25.85
2018-11-26T23:02:45.978Z,25.62
2018-11-26T23:04:49.810Z,25.77
2018-11-26T23:06:53.583Z,27.32
2018-11-26T23:08:57.413Z,25.60
2018-11-26T23:11:01.706Z,28.42
2018-11-26T23:13:06.153Z,27.93
2018-11-26T23:15:12.080Z,27.13
2018-11-26T23:17:15.904Z,28.05
2018-11-26T23:19:19.708Z,26.73
2018-11-26T23:21:23.480Z,28.83
2018-11-26T23:23:27.264Z,28.55
2018-11-26T23:25:31.147Z,28.30
2018-11-26T23:27:35.082Z,28.12
2018-11-26T23:29:38.887Z,28.40
2018-11-26T23:31:42.665Z,28.80
2018-11-26T23:33:46.455Z,29.75
2018-11-26T23:35:50.277Z,28.38
2018-11-26T23:37:54.086Z,29.10
2018-11-26T23:39:57.917Z,29.63
2018-11-26T23:42:01.710Z,29.40
2018-11-26T23:44:05.538Z,28.47
2018-11-26T23:46:09.364Z,29.72
2018-11-26T23:48:13.156Z,28.17
2018-11-26T23:50:17.547Z,29.60
2018-11-26T23:52:21.321Z,29.57
2018-11-26T23:54:25.105Z,29.67
2018-11-26T23:56:28.890Z,29.05
2018-11-26T23:58:32.643Z,28.32
